createdAt,value
2024-05-09T00:01:01.455Z,15.03
2024-05-09T00:03:07.438Z,14.07
2024-05-09T00:05:12.498Z,14.10
2024-05-09T00:07:14.450Z,12.87
2024-05-09T00:09:16.467Z,15.50
2024-05-09T00:11:18.529Z,14.17
2024-05-09T00:13:20.539Z,13.40
2024-05-09T00:15:22.456Z,13.50
2024-05-09T00:17:24.956Z,13.80
2024-05-09T00:19:27.751Z,15.87
2024-05-09T00:21:29.677Z,13.37
2024-05-09T00:23:31.607Z,13.37
2024-05-09T00:25:33.584Z,12.97
2024-05-09T00:27:36.474Z,15.10
2024-05-09T00:29:38.420Z,13.97
2024-05-09T00:31:40.292Z,14.90
2024-05-09T00:35:44.353Z,13.30
2024-05-09T00:37:46.274Z,14.23
2024-05-09T00:39:48.248Z,15.27
2024-05-09T00:41:50.236Z,15.37
2024-05-09T00:43:52.589Z,13.63
2024-05-09T00:45:57.623Z,14.17
2024-05-09T00:48:01.747Z,15.90
2024-05-09T00:50:05.556Z,14.87
2024-05-09T00:52:10.673Z,15.00
2024-05-09T00:54:12.681Z,16.40
2024-05-09T00:56:15.535Z,13.80
2024-05-09T00:58:20.998Z,15.33
2024-05-09T01:00:31.470Z,16.60
2024-05-09T01:02:41.286Z,15.83
2024-05-09T01:04:43.469Z,15.00
2024-05-09T01:06:45.521Z,16.93
2024-05-09T01:08:47.934Z,16.37
2024-05-09T01:10:50.091Z,16.57
2024-05-09T01:12:51.968Z,15.73
2024-05-09T01:16:56.182Z,16.55
2024-05-09T01:18:59.288Z,16.33
2024-05-09T01:21:01.313Z,17.73
2024-05-09T01:23:07.488Z,16.93
2024-05-09T01:25:09.530Z,15.50
2024-05-09T01:27:11.423Z,16.07
2024-05-09T01:29:13.537Z,18.20
2024-05-09T01:31:16.292Z,16.57
2024-05-09T01:33:18.323Z,17.03
2024-05-09T01:35:23.989Z,16.83
2024-05-09T01:37:25.987Z,16.83
2024-05-09T01:39:27.926Z,17.80
2024-05-09T01:41:29.896Z,17.40
2024-05-09T01:43:31.839Z,18.07
2024-05-09T01:45:33.706Z,15.97
2024-05-09T01:47:36.297Z,16.50
2024-05-09T01:49:38.669Z,16.13
2024-05-09T01:51:40.666Z,17.20
2024-05-09T01:53:44.067Z,17.93
2024-05-09T01:55:46.158Z,16.53
2024-05-09T01:57:48.274Z,15.50
2024-05-09T01:59:50.285Z,14.50
2024-05-09T02:01:56.871Z,16.47
2024-05-09T02:04:00.045Z,15.43
2024-05-09T02:06:02.374Z,14.60
2024-05-09T02:08:05.467Z,16.13
2024-05-09T02:10:13.791Z,16.10
2024-05-09T02:12:19.232Z,15.43
2024-05-09T02:14:21.333Z,17.73
2024-05-09T02:16:23.470Z,17.00
2024-05-09T02:18:25.711Z,15.00
2024-05-09T02:20:35.405Z,16.50
2024-05-09T02:22:39.152Z,15.55
2024-05-09T02:24:41.143Z,17.07
2024-05-09T02:26:43.146Z,18.37
2024-05-09T02:28:45.052Z,16.80
2024-05-09T02:30:47.044Z,16.53
2024-05-09T02:32:49.153Z,15.57
2024-05-09T02:34:51.195Z,16.70
2024-05-09T02:36:56.365Z,16.80
2024-05-09T02:38:58.366Z,17.63
2024-05-09T02:41:00.270Z,18.67
2024-05-09T02:43:02.319Z,17.40
2024-05-09T02:45:04.675Z,17.30
2024-05-09T02:47:06.808Z,17.37
2024-05-09T02:49:09.113Z,15.87
2024-05-09T02:51:11.669Z,17.17
2024-05-09T02:53:14.797Z,18.80
2024-05-09T02:55:16.876Z,18.70
2024-05-09T02:57:18.853Z,17.30
2024-05-09T02:59:20.841Z,17.67
2024-05-09T03:01:22.880Z,18.23
2024-05-09T03:03:25.134Z,16.23
2024-05-09T03:05:27.337Z,19.93
2024-05-09T03:07:29.347Z,18.33
2024-05-09T03:09:31.220Z,18.87
2024-05-09T03:13:35.115Z,18.25
2024-05-09T03:15:37.121Z,17.20
2024-05-09T03:17:42.355Z,17.67
2024-05-09T03:19:44.422Z,16.77
2024-05-09T03:21:46.344Z,17.67
2024-05-09T03:23:48.426Z,17.07
2024-05-09T03:25:50.441Z,17.87
2024-05-09T03:27:53.619Z,16.37
2024-05-09T03:29:55.556Z,19.13
2024-05-09T03:31:57.579Z,16.60
2024-05-09T03:33:59.775Z,18.23
2024-05-09T03:36:03.133Z,17.77
2024-05-09T03:38:05.266Z,17.33
2024-05-09T03:40:11.827Z,18.67
2024-05-09T03:42:16.676Z,17.93
2024-05-09T03:44:18.748Z,17.40
2024-05-09T03:46:20.669Z,17.50
2024-05-09T03:50:30.205Z,17.48
2024-05-09T03:54:45.711Z,16.67
2024-05-09T03:56:47.785Z,16.60
2024-05-09T03:58:49.756Z,18.03
2024-05-09T04:00:51.731Z,16.97
2024-05-09T04:02:53.916Z,18.17
2024-05-09T04:04:55.953Z,16.47
2024-05-09T04:06:58.480Z,17.37
2024-05-09T04:09:00.613Z,16.30
2024-05-09T04:11:02.780Z,16.97
2024-05-09T04:13:05.788Z,16.13
2024-05-09T04:15:11.186Z,16.13
2024-05-09T04:17:15.758Z,17.07
2024-05-09T04:19:18.105Z,17.00
2024-05-09T04:21:20.218Z,16.30
2024-05-09T04:23:22.296Z,17.77
2024-05-09T04:25:24.276Z,16.53
2024-05-09T04:27:26.132Z,18.10
2024-05-09T04:31:30.388Z,15.32
2024-05-09T04:33:32.981Z,15.90
2024-05-09T04:35:35.114Z,16.43
2024-05-09T04:37:37.164Z,15.70
2024-05-09T04:39:39.203Z,15.63
2024-05-09T04:41:41.281Z,15.63
2024-05-09T04:43:43.166Z,16.43
2024-05-09T04:47:47.220Z,15.82
2024-05-09T04:49:49.194Z,17.60
2024-05-09T04:53:53.027Z,17.27
2024-05-09T04:55:55.007Z,17.77
2024-05-09T04:57:57.042Z,18.90
2024-05-09T04:59:59.062Z,17.13
2024-05-09T05:02:01.543Z,18.43
2024-05-09T05:04:03.927Z,19.60
2024-05-09T05:06:06.143Z,17.53
2024-05-09T05:08:12.424Z,17.03
2024-05-09T05:10:21.445Z,15.93
2024-05-09T05:12:46.286Z,17.50
2024-05-09T05:14:48.179Z,16.03
2024-05-09T05:16:50.190Z,19.13
2024-05-09T05:18:52.385Z,14.60
2024-05-09T05:20:55.779Z,17.67
2024-05-09T05:22:57.845Z,14.60
2024-05-09T05:24:59.772Z,18.50
2024-05-09T05:27:02.111Z,17.63
2024-05-09T05:29:04.209Z,17.73
2024-05-09T05:31:06.211Z,17.50
2024-05-09T05:33:11.448Z,16.47
2024-05-09T05:35:13.575Z,17.60
2024-05-09T05:37:15.521Z,16.77
2024-05-09T05:39:17.462Z,16.38
2024-05-09T05:41:19.495Z,16.55
2024-05-09T05:43:21.402Z,16.40
2024-05-09T05:45:23.507Z,18.15
2024-05-09T05:47:25.765Z,17.83
2024-05-09T05:49:27.912Z,18.17
2024-05-09T05:51:30.018Z,18.48
2024-05-09T05:53:32.005Z,18.10
2024-05-09T05:55:33.974Z,16.15
2024-05-09T05:57:35.970Z,17.10
2024-05-09T05:59:37.966Z,16.20
2024-05-09T06:01:39.964Z,17.35
2024-05-09T06:03:42.597Z,17.52
2024-05-09T06:05:46.201Z,17.38
2024-05-09T06:07:48.213Z,18.00
2024-05-09T06:09:50.558Z,19.30
2024-05-09T06:11:52.546Z,19.50
2024-05-09T06:13:54.735Z,17.45
2024-05-09T06:15:56.735Z,17.85
2024-05-09T06:17:59.243Z,17.15
2024-05-09T06:20:01.334Z,18.90
2024-05-09T06:22:03.906Z,17.65
2024-05-09T06:24:06.740Z,19.00
2024-05-09T06:26:08.841Z,18.35
2024-05-09T06:28:11.531Z,19.90
2024-05-09T06:30:24.914Z,19.90
2024-05-09T06:32:31.760Z,20.70
2024-05-09T06:34:33.891Z,21.00
2024-05-09T06:36:35.893Z,19.95
2024-05-09T06:38:38.285Z,20.48
2024-05-09T06:40:42.941Z,19.50
2024-05-09T06:42:45.898Z,20.77
2024-05-09T06:44:47.774Z,20.48
2024-05-09T06:46:49.902Z,20.75
2024-05-09T06:48:53.058Z,20.83
2024-05-09T06:50:55.341Z,20.38
2024-05-09T06:52:57.398Z,19.35
2024-05-09T06:54:59.411Z,22.15
2024-05-09T06:57:01.592Z,23.20
2024-05-09T06:59:04.008Z,22.35
2024-05-09T07:01:06.779Z,23.80
2024-05-09T07:03:09.738Z,22.77
2024-05-09T07:05:12.474Z,21.30
2024-05-09T07:07:14.511Z,21.90
2024-05-09T07:09:16.571Z,20.80
2024-05-09T07:11:18.691Z,20.25
2024-05-09T07:13:20.666Z,21.70
2024-05-09T07:15:22.644Z,21.35
2024-05-09T07:17:24.841Z,21.80
2024-05-09T07:19:27.130Z,22.98
2024-05-09T07:21:29.217Z,21.65
2024-05-09T07:23:31.482Z,22.95
2024-05-09T07:25:33.437Z,24.25
2024-05-09T07:27:35.379Z,22.20
2024-05-09T07:29:38.658Z,21.65
2024-05-09T07:31:40.950Z,21.30
2024-05-09T07:33:43.135Z,19.95
2024-05-09T07:35:45.188Z,19.80
2024-05-09T07:37:47.251Z,19.92
2024-05-09T07:39:49.188Z,19.35
2024-05-09T07:41:51.173Z,20.27
2024-05-09T07:43:53.102Z,19.50
2024-05-09T07:45:57.085Z,19.48
2024-05-09T07:54:24.785Z,16.02
2024-05-09T07:56:27.206Z,16.60
2024-05-09T07:58:29.660Z,17.55
2024-05-09T08:00:32.285Z,17.27
2024-05-09T08:02:34.466Z,17.27
2024-05-09T08:04:36.602Z,15.25
2024-05-09T08:06:38.898Z,16.85
2024-05-09T08:08:41.115Z,18.13
2024-05-09T08:10:43.196Z,18.42
2024-05-09T08:12:45.383Z,17.10
2024-05-09T08:14:47.405Z,15.38
2024-05-09T08:16:49.351Z,17.42
2024-05-09T08:18:51.528Z,16.35
2024-05-09T08:20:53.476Z,15.45
2024-05-09T08:22:55.371Z,15.95
2024-05-09T08:24:57.471Z,16.25
2024-05-09T08:26:59.587Z,15.95
2024-05-09T08:29:01.574Z,14.30
2024-05-09T08:31:06.718Z,13.07
2024-05-09T08:33:09.278Z,14.23
2024-05-09T08:35:12.825Z,12.75
2024-05-09T08:37:21.453Z,14.27
2024-05-09T08:39:25.479Z,13.90
2024-05-09T08:41:28.460Z,13.63
2024-05-09T08:43:30.550Z,14.50
2024-05-09T08:45:35.193Z,12.30
2024-05-09T08:47:37.338Z,12.88
2024-05-09T08:49:41.699Z,12.75
2024-05-09T08:51:44.837Z,13.35
2024-05-09T08:53:46.878Z,14.25
2024-05-09T08:55:49.672Z,11.15
2024-05-09T08:57:53.204Z,10.50
2024-05-09T08:59:56.525Z,11.82
2024-05-09T09:01:59.962Z,12.00
2024-05-09T09:04:04.282Z,10.60
2024-05-09T09:06:09.314Z,10.13
2024-05-09T09:08:12.102Z,11.05
2024-05-09T09:10:25.437Z,9.80
2024-05-09T09:12:33.743Z,8.27
2024-05-09T09:14:35.828Z,8.95
2024-05-09T09:16:37.772Z,8.20
2024-05-09T09:18:39.886Z,10.20
2024-05-09T09:20:42.587Z,8.70
2024-05-09T09:22:44.512Z,9.10
2024-05-09T09:24:46.529Z,12.30
2024-05-09T09:26:48.589Z,8.48
2024-05-09T09:28:50.618Z,9.32
2024-05-09T09:30:52.602Z,9.73
2024-05-09T09:32:55.962Z,8.55
2024-05-09T09:34:58.135Z,7.97
2024-05-09T09:37:07.941Z,9.10
2024-05-09T09:39:10.194Z,9.77
2024-05-09T09:41:12.928Z,8.15
2024-05-09T09:43:19.833Z,8.48
2024-05-09T09:45:21.929Z,8.52
2024-05-09T09:47:26.696Z,7.90
2024-05-09T09:49:32.541Z,9.32
2024-05-09T09:51:35.703Z,7.50
2024-05-09T09:53:38.804Z,7.85
2024-05-09T09:55:42.166Z,5.80
2024-05-09T09:57:49.383Z,4.85
2024-05-09T09:59:52.718Z,4.15
2024-05-09T10:01:55.482Z,3.45
2024-05-09T10:03:58.278Z,5.22
2024-05-09T10:06:00.977Z,4.60
2024-05-09T10:08:07.606Z,5.25
2024-05-09T10:10:13.920Z,4.10
2024-05-09T10:12:20.988Z,3.40
2024-05-09T10:14:23.054Z,3.40
2024-05-09T10:16:31.144Z,3.03
2024-05-09T10:18:37.741Z,3.47
2024-05-09T10:20:41.559Z,3.78
2024-05-09T10:22:50.696Z,2.90
2024-05-09T10:24:54.127Z,2.70
2024-05-09T10:26:56.314Z,2.55
2024-05-09T10:28:58.996Z,2.97
2024-05-09T10:31:07.908Z,2.65
2024-05-09T10:33:11.340Z,2.85
2024-05-09T10:35:16.574Z,3.05
2024-05-09T10:37:19.371Z,3.00
2024-05-09T10:39:21.882Z,2.83
2024-05-09T10:41:24.231Z,2.63
2024-05-09T10:43:27.076Z,2.50
2024-05-09T10:45:29.132Z,2.50
2024-05-09T10:47:31.309Z,2.80
2024-05-09T10:49:33.369Z,2.70
2024-05-09T10:51:35.936Z,2.80
2024-05-09T10:53:42.847Z,2.75
2024-05-09T10:55:56.739Z,3.47
2024-05-09T10:57:58.621Z,3.90
2024-05-09T11:00:00.590Z,4.03
2024-05-09T11:02:04.577Z,3.25
2024-05-09T11:04:08.580Z,3.00
2024-05-09T11:06:11.554Z,2.75
2024-05-09T11:08:14.075Z,2.50
2024-05-09T11:10:24.372Z,2.85
2024-05-09T11:12:29.571Z,3.88
2024-05-09T11:14:31.671Z,3.33
2024-05-09T11:16:33.615Z,2.60
2024-05-09T11:18:38.782Z,2.58
2024-05-09T11:20:41.606Z,3.15
2024-05-09T11:22:43.790Z,2.97
2024-05-09T11:24:45.803Z,2.90
2024-05-09T11:26:47.921Z,3.35
2024-05-09T11:28:51.048Z,3.08
2024-05-09T11:30:53.328Z,3.83
2024-05-09T11:32:55.559Z,3.55
2024-05-09T11:34:57.543Z,3.45
2024-05-09T11:36:59.690Z,3.20
2024-05-09T11:39:01.625Z,3.13
2024-05-09T11:41:05.110Z,3.45
2024-05-09T11:43:07.346Z,3.38
2024-05-09T11:45:09.278Z,2.58
2024-05-09T11:47:11.427Z,3.10
2024-05-09T11:49:13.671Z,2.55
2024-05-09T11:51:15.671Z,2.90
2024-05-09T11:53:17.639Z,3.33
2024-05-09T11:55:19.730Z,3.53
2024-05-09T11:57:21.708Z,3.92
2024-05-09T11:59:23.756Z,3.25
2024-05-09T12:01:27.912Z,3.33
2024-05-09T12:03:30.309Z,4.20
2024-05-09T12:05:32.866Z,3.22
2024-05-09T12:07:35.198Z,3.00
2024-05-09T12:09:37.199Z,3.08
2024-05-09T12:11:39.824Z,3.30
2024-05-09T12:13:41.978Z,4.13
2024-05-09T12:15:44.169Z,3.28
2024-05-09T12:17:49.473Z,3.75
2024-05-09T12:19:53.026Z,2.97
2024-05-09T12:21:55.149Z,3.35
2024-05-09T12:23:57.072Z,3.15
2024-05-09T12:25:59.022Z,3.10
2024-05-09T12:28:01.284Z,5.00
2024-05-09T12:30:04.615Z,3.20
2024-05-09T12:32:09.181Z,3.22
2024-05-09T12:34:11.320Z,3.33
2024-05-09T12:36:13.388Z,2.92
2024-05-09T12:38:15.598Z,3.53
2024-05-09T12:40:26.249Z,2.95
2024-05-09T12:42:35.652Z,2.80
2024-05-09T12:44:37.731Z,3.30
2024-05-09T12:46:39.689Z,3.50
2024-05-09T12:48:41.864Z,3.05
2024-05-09T12:50:44.050Z,2.65
2024-05-09T12:52:46.088Z,3.10
2024-05-09T12:54:48.071Z,2.95
2024-05-09T12:56:50.458Z,3.03
2024-05-09T12:58:52.454Z,3.75
2024-05-09T13:00:54.606Z,3.08
2024-05-09T13:02:56.797Z,2.80
2024-05-09T13:04:58.879Z,3.60
2024-05-09T13:07:00.948Z,3.67
2024-05-09T13:09:02.949Z,3.25
2024-05-09T13:11:05.114Z,3.42
2024-05-09T13:13:07.187Z,3.25
2024-05-09T13:15:09.181Z,3.30
2024-05-09T13:17:11.155Z,3.25
2024-05-09T13:19:13.073Z,2.95
2024-05-09T13:21:15.212Z,3.20
2024-05-09T13:23:17.131Z,3.25
2024-05-09T13:25:19.189Z,3.22
2024-05-09T13:27:21.348Z,3.38
2024-05-09T13:29:23.354Z,3.35
2024-05-09T13:31:25.401Z,2.85
2024-05-09T13:33:27.503Z,3.42
2024-05-09T13:35:29.620Z,3.05
2024-05-09T13:37:33.209Z,3.55
2024-05-09T13:39:35.334Z,3.38
2024-05-09T13:41:37.325Z,3.95
2024-05-09T13:43:39.360Z,3.00
2024-05-09T13:45:41.500Z,3.78
2024-05-09T13:47:43.792Z,2.72
2024-05-09T13:49:46.475Z,2.83
2024-05-09T13:51:48.810Z,3.33
2024-05-09T13:53:50.743Z,2.92
2024-05-09T13:55:52.727Z,3.25
2024-05-09T13:57:55.819Z,3.38
2024-05-09T13:59:57.988Z,3.65
2024-05-09T14:02:00.009Z,3.35
2024-05-09T14:04:02.312Z,3.13
2024-05-09T14:06:04.491Z,3.28
2024-05-09T14:08:06.665Z,3.63
2024-05-09T14:10:19.466Z,3.33
2024-05-09T14:12:25.533Z,3.28
2024-05-09T14:14:27.830Z,3.03
2024-05-09T14:16:33.422Z,3.08
2024-05-09T14:18:35.699Z,3.55
2024-05-09T14:20:38.324Z,3.08
2024-05-09T14:22:41.389Z,3.53
2024-05-09T14:24:43.601Z,3.30
2024-05-09T14:26:45.614Z,3.30
2024-05-09T14:28:47.528Z,3.03
2024-05-09T14:30:49.628Z,3.00
2024-05-09T14:32:51.697Z,3.03
2024-05-09T14:34:53.989Z,3.70
2024-05-09T14:36:56.040Z,3.25
2024-05-09T14:38:57.925Z,3.08
2024-05-09T14:41:00.185Z,3.28
2024-05-09T14:43:03.045Z,3.22
2024-05-09T14:45:06.358Z,3.40
2024-05-09T14:47:08.566Z,3.25
2024-05-09T14:49:12.465Z,2.92
2024-05-09T14:51:14.679Z,3.03
2024-05-09T14:53:16.771Z,3.30
2024-05-09T14:55:18.727Z,3.03
2024-05-09T14:57:20.719Z,3.92
2024-05-09T14:59:23.097Z,2.95
2024-05-09T15:01:25.199Z,3.40
2024-05-09T15:03:27.457Z,3.13
2024-05-09T15:05:29.633Z,3.25
2024-05-09T15:07:31.569Z,3.55
2024-05-09T15:09:37.257Z,3.20
2024-05-09T15:11:39.432Z,2.97
2024-05-09T15:13:41.965Z,2.80
2024-05-09T15:15:44.353Z,3.28
2024-05-09T15:17:46.737Z,3.13
2024-05-09T15:19:48.892Z,3.28
2024-05-09T15:21:50.955Z,3.20
2024-05-09T15:23:53.241Z,2.70
2024-05-09T15:25:55.213Z,2.60
2024-05-09T15:27:57.375Z,2.92
2024-05-09T15:30:04.394Z,3.10
2024-05-09T15:32:07.598Z,3.00
2024-05-09T15:34:09.593Z,2.63
2024-05-09T15:36:12.060Z,3.10
2024-05-09T15:38:15.237Z,2.95
2024-05-09T15:40:26.230Z,2.95
2024-05-09T15:42:39.729Z,3.15
2024-05-09T15:44:45.218Z,3.03
2024-05-09T15:46:47.903Z,2.95
2024-05-09T15:48:50.022Z,2.72
2024-05-09T15:50:52.192Z,3.10
2024-05-09T15:52:54.138Z,3.22
2024-05-09T15:54:56.313Z,3.03
2024-05-09T15:56:58.276Z,3.17
2024-05-09T15:59:00.852Z,2.80
2024-05-09T16:01:02.973Z,2.85
2024-05-09T16:03:05.398Z,2.83
2024-05-09T16:05:07.713Z,2.45
2024-05-09T16:07:09.938Z,2.75
2024-05-09T16:09:12.185Z,2.90
2024-05-09T16:11:17.125Z,2.63
2024-05-09T16:13:19.977Z,2.92
2024-05-09T16:15:22.238Z,3.45
2024-05-09T16:17:24.853Z,3.35
2024-05-09T16:19:26.975Z,2.60
2024-05-09T16:21:28.874Z,2.90
2024-05-09T16:23:30.980Z,2.70
2024-05-09T16:25:32.980Z,2.38
2024-05-09T16:27:34.970Z,3.42
2024-05-09T16:29:37.040Z,2.78
2024-05-09T16:31:39.173Z,3.35
2024-05-09T16:33:41.490Z,3.25
2024-05-09T16:35:43.485Z,3.33
2024-05-09T16:37:45.691Z,3.40
2024-05-09T16:39:47.624Z,3.25
2024-05-09T16:41:49.530Z,3.47
2024-05-09T16:43:51.472Z,2.85
2024-05-09T16:45:53.692Z,2.50
2024-05-09T16:47:56.110Z,2.53
2024-05-09T16:49:58.283Z,2.95
2024-05-09T16:52:00.299Z,3.38
2024-05-09T16:54:02.383Z,2.85
2024-05-09T16:56:05.154Z,2.95
2024-05-09T16:58:12.677Z,3.60
2024-05-09T17:00:22.440Z,2.80
2024-05-09T17:02:35.820Z,3.80
2024-05-09T17:04:38.127Z,3.75
2024-05-09T17:06:40.315Z,3.75
2024-05-09T17:08:43.919Z,3.45
2024-05-09T17:10:49.233Z,2.88
2024-05-09T17:12:51.888Z,3.30
2024-05-09T17:14:53.872Z,2.80
2024-05-09T17:16:55.841Z,3.25
2024-05-09T17:18:57.934Z,3.10
2024-05-09T17:21:00.196Z,2.70
2024-05-09T17:23:03.202Z,3.05
2024-05-09T17:25:05.825Z,2.90
2024-05-09T17:27:08.558Z,3.03
2024-05-09T17:29:12.321Z,3.35
2024-05-09T17:31:14.798Z,3.13
2024-05-09T17:33:16.926Z,2.45
2024-05-09T17:35:19.793Z,2.67
2024-05-09T17:37:21.938Z,2.50
2024-05-09T17:39:24.065Z,2.75
2024-05-09T17:41:26.881Z,2.50
2024-05-09T17:43:29.240Z,2.88
2024-05-09T17:45:31.462Z,2.40
2024-05-09T17:47:37.433Z,2.80
2024-05-09T17:49:40.182Z,2.53
2024-05-09T17:51:54.860Z,3.10
2024-05-09T17:53:56.800Z,2.35
2024-05-09T17:56:00.546Z,2.53
2024-05-09T17:58:03.142Z,2.70
2024-05-09T18:00:11.248Z,2.45
2024-05-09T18:02:14.271Z,2.67
2024-05-09T18:04:18.459Z,2.08
2024-05-09T18:06:20.439Z,2.75
2024-05-09T18:08:22.320Z,2.45
2024-05-09T18:10:32.543Z,2.60
2024-05-09T18:12:38.539Z,2.53
2024-05-09T18:14:40.446Z,2.60
2024-05-09T18:16:42.491Z,2.63
2024-05-09T18:18:44.590Z,2.40
2024-05-09T18:20:47.285Z,2.40
2024-05-09T18:22:49.427Z,2.63
2024-05-09T18:24:51.460Z,4.60
2024-05-09T18:26:53.898Z,3.50
2024-05-09T18:28:55.975Z,3.38
2024-05-09T18:30:57.974Z,3.00
2024-05-09T18:32:59.968Z,3.08
2024-05-09T18:35:02.070Z,2.63
2024-05-09T18:37:04.716Z,3.05
2024-05-09T18:39:06.960Z,3.00
2024-05-09T18:41:08.950Z,2.97
2024-05-09T18:43:10.943Z,2.67
2024-05-09T18:45:13.496Z,2.72
2024-05-09T18:47:19.397Z,3.60
2024-05-09T18:49:22.120Z,2.45
2024-05-09T18:51:24.410Z,3.28
2024-05-09T18:53:26.490Z,2.85
2024-05-09T18:55:28.392Z,2.70
2024-05-09T18:57:30.411Z,2.80
2024-05-09T18:59:32.660Z,2.83
2024-05-09T19:01:34.683Z,2.80
2024-05-09T19:03:36.924Z,2.78
2024-05-09T19:05:39.779Z,2.70
2024-05-09T19:07:43.591Z,2.72
2024-05-09T19:09:45.946Z,2.60
2024-05-09T19:11:48.055Z,4.95
2024-05-09T19:13:50.092Z,3.80
2024-05-09T19:15:52.140Z,2.70
2024-05-09T19:17:54.428Z,2.38
2024-05-09T19:19:56.874Z,2.53
2024-05-09T19:21:58.973Z,3.38
2024-05-09T19:24:01.110Z,2.63
2024-05-09T19:26:03.367Z,3.15
2024-05-09T19:28:05.910Z,2.63
2024-05-09T19:30:17.421Z,2.45
2024-05-09T19:32:26.491Z,2.88
2024-05-09T19:34:29.052Z,2.55
2024-05-09T19:36:31.772Z,2.83
2024-05-09T19:38:34.883Z,2.90
2024-05-09T19:40:37.092Z,2.92
2024-05-09T19:42:39.507Z,2.90
2024-05-09T19:44:41.531Z,2.95
2024-05-09T19:46:43.904Z,2.80
2024-05-09T19:48:46.244Z,2.90
2024-05-09T19:50:51.570Z,3.63
2024-05-09T19:52:55.284Z,2.97
2024-05-09T19:54:57.274Z,3.00
2024-05-09T19:56:59.262Z,2.97
2024-05-09T19:59:01.524Z,2.80
2024-05-09T20:01:03.830Z,3.10
2024-05-09T20:03:06.476Z,2.78
2024-05-09T20:05:09.077Z,2.72
2024-05-09T20:07:14.550Z,2.95
2024-05-09T20:09:16.753Z,2.70
2024-05-09T20:11:18.752Z,2.85
2024-05-09T20:13:21.048Z,2.20
2024-05-09T20:15:22.999Z,3.47
2024-05-09T20:17:24.963Z,2.80
2024-05-09T20:19:27.161Z,2.67
2024-05-09T20:21:29.084Z,3.00
2024-05-09T20:23:31.164Z,2.65
2024-05-09T20:25:33.199Z,2.63
2024-05-09T20:27:35.287Z,3.33
2024-05-09T20:29:37.314Z,3.78
2024-05-09T20:31:41.818Z,3.10
2024-05-09T20:33:44.117Z,3.00
2024-05-09T20:35:46.084Z,3.05
2024-05-09T20:37:48.000Z,3.00
2024-05-09T20:39:49.984Z,3.78
2024-05-09T20:41:53.369Z,3.28
2024-05-09T20:43:57.655Z,4.07
2024-05-09T20:45:59.609Z,3.40
2024-05-09T20:48:01.973Z,4.45
2024-05-09T20:50:11.390Z,4.20
2024-05-09T20:52:18.314Z,3.65
2024-05-09T20:54:20.243Z,3.67
2024-05-09T20:56:22.770Z,3.78
2024-05-09T20:58:24.699Z,3.47
2024-05-09T21:00:35.361Z,3.67
2024-05-09T21:02:43.935Z,3.55
2024-05-09T21:04:46.042Z,3.13
2024-05-09T21:06:48.136Z,3.42
2024-05-09T21:08:50.077Z,3.63
2024-05-09T21:10:52.117Z,3.30
2024-05-09T21:12:54.202Z,3.53
2024-05-09T21:14:56.184Z,3.22
2024-05-09T21:16:58.352Z,3.70
2024-05-09T21:19:00.542Z,3.63
2024-05-09T21:21:02.508Z,3.25
2024-05-09T21:23:04.508Z,3.53
2024-05-09T21:25:06.610Z,4.32
2024-05-09T21:27:08.618Z,3.38
2024-05-09T21:29:11.830Z,3.53
2024-05-09T21:31:13.887Z,2.75
2024-05-09T21:33:16.007Z,3.13
2024-05-09T21:35:18.554Z,2.55
2024-05-09T21:37:20.454Z,2.97
2024-05-09T21:39:25.202Z,3.00
2024-05-09T21:41:27.097Z,2.92
2024-05-09T21:43:31.672Z,2.92
2024-05-09T21:45:34.828Z,2.83
2024-05-09T21:47:37.942Z,3.00
2024-05-09T21:49:39.954Z,2.95
2024-05-09T21:51:41.976Z,2.97
2024-05-09T21:53:43.879Z,3.10
2024-05-09T21:55:46.978Z,3.97
2024-05-09T21:57:49.130Z,3.63
2024-05-09T21:59:51.120Z,3.70
2024-05-09T22:01:53.230Z,3.55
2024-05-09T22:03:56.249Z,4.18
2024-05-09T22:05:58.368Z,3.08
2024-05-09T22:08:00.602Z,4.25
2024-05-09T22:10:03.196Z,3.83
2024-05-09T22:12:05.454Z,3.75
2024-05-09T22:14:07.459Z,3.75
2024-05-09T22:16:09.510Z,3.65
2024-05-09T22:18:12.066Z,3.58
2024-05-09T22:20:21.902Z,4.65
2024-05-09T22:22:30.367Z,4.00
2024-05-09T22:24:32.524Z,3.95
2024-05-09T22:26:37.887Z,3.88
2024-05-09T22:28:39.827Z,4.45
2024-05-09T22:30:43.113Z,3.92
2024-05-09T22:32:45.094Z,4.18
2024-05-09T22:34:47.289Z,4.53
2024-05-09T22:36:49.284Z,4.03
2024-05-09T22:38:51.166Z,3.75
2024-05-09T22:40:53.279Z,3.42
2024-05-09T22:42:55.627Z,4.25
2024-05-09T22:44:57.505Z,3.97
2024-05-09T22:46:59.629Z,3.28
2024-05-09T22:49:01.743Z,3.60
2024-05-09T22:51:04.162Z,3.75
2024-05-09T22:53:06.134Z,3.20
2024-05-09T22:55:08.402Z,3.67
2024-05-09T22:57:10.389Z,3.40
2024-05-09T22:59:12.309Z,3.33
2024-05-09T23:01:17.597Z,3.63
2024-05-09T23:03:21.886Z,3.55
2024-05-09T23:05:24.659Z,4.00
2024-05-09T23:07:26.754Z,3.53
2024-05-09T23:09:28.692Z,4.03
2024-05-09T23:11:30.661Z,3.80
2024-05-09T23:13:35.635Z,3.78
2024-05-09T23:15:38.827Z,3.63
2024-05-09T23:17:41.619Z,4.25
2024-05-09T23:19:43.803Z,4.05
2024-05-09T23:21:45.793Z,4.05
2024-05-09T23:23:47.734Z,4.95
2024-05-09T23:25:49.977Z,4.28
2024-05-09T23:27:52.343Z,5.10
2024-05-09T23:29:54.540Z,5.40
2024-05-09T23:31:56.446Z,4.93
2024-05-09T23:33:58.528Z,4.13
2024-05-09T23:36:00.610Z,4.50
2024-05-09T23:38:03.000Z,3.45
2024-05-09T23:40:07.261Z,3.50
2024-05-09T23:42:11.440Z,4.20
2024-05-09T23:44:13.449Z,3.47
2024-05-09T23:46:15.444Z,4.20
2024-05-09T23:48:17.734Z,4.53
2024-05-09T23:50:26.366Z,3.75
2024-05-09T23:52:36.298Z,4.00
2024-05-09T23:54:38.456Z,4.20
2024-05-09T23:56:40.452Z,3.80
2024-05-09T23:58:42.557Z,4.30
